sensor_id;sensor_type;location;lat;lon;timestamp;P1;durP1;ratioP1;P2;durP2;ratioP2
3561;SDS011;1795;52.074;4.754;2023-05-07T00:00:05;17.50;;;13.10;;
3561;SDS011;1795;52.074;4.754;2023-05-07T00:02:35;20.95;;;14.52;;
3561;SDS011;1795;52.074;4.754;2023-05-07T00:05:06;20.33;;;15.20;;
3561;SDS011;1795;52.074;4.754;2023-05-07T00:07:35;17.88;;;14.95;;
3561;SDS011;1795;52.074;4.754;2023-05-07T00:10:03;19.55;;;14.75;;
3561;SDS011;1795;52.074;4.754;2023-05-07T00:12:32;19.85;;;16.45;;
3561;SDS011;1795;52.074;4.754;2023-05-07T00:15:01;19.85;;;15.05;;
3561;SDS011;1795;52.074;4.754;2023-05-07T00:17:30;19.15;;;15.65;;
3561;SDS011;1795;52.074;4.754;2023-05-07T00:19:58;19.65;;;14.75;;
3561;SDS011;1795;52.074;4.754;2023-05-07T00:22:27;18.23;;;14.05;;
3561;SDS011;1795;52.074;4.754;2023-05-07T00:24:56;18.23;;;14.83;;
3561;SDS011;1795;52.074;4.754;2023-05-07T00:27:24;16.60;;;14.00;;
3561;SDS011;1795;52.074;4.754;2023-05-07T00:29:52;17.83;;;15.93;;
3561;SDS011;1795;52.074;4.754;2023-05-07T00:32:20;17.83;;;15.13;;
3561;SDS011;1795;52.074;4.754;2023-05-07T00:34:48;18.27;;;15.27;;
3561;SDS011;1795;52.074;4.754;2023-05-07T00:37:17;20.58;;;15.35;;
3561;SDS011;1795;52.074;4.754;2023-05-07T00:39:46;19.27;;;15.15;;
3561;SDS011;1795;52.074;4.754;2023-05-07T00:42:14;19.73;;;15.13;;
3561;SDS011;1795;52.074;4.754;2023-05-07T00:44:42;19.33;;;15.52;;
3561;SDS011;1795;52.074;4.754;2023-05-07T00:47:10;16.77;;;14.98;;
3561;SDS011;1795;52.074;4.754;2023-05-07T00:49:39;18.10;;;15.75;;
3561;SDS011;1795;52.074;4.754;2023-05-07T00:52:11;19.38;;;14.85;;
3561;SDS011;1795;52.074;4.754;2023-05-07T00:54:41;20.60;;;15.95;;
3561;SDS011;1795;52.074;4.754;2023-05-07T00:57:10;22.00;;;16.13;;
3561;SDS011;1795;52.074;4.754;2023-05-07T00:59:38;19.45;;;16.13;;
3561;SDS011;1795;52.074;4.754;2023-05-07T01:02:06;21.50;;;16.38;;
3561;SDS011;1795;52.074;4.754;2023-05-07T01:04:34;19.17;;;16.13;;
3561;SDS011;1795;52.074;4.754;2023-05-07T01:07:03;19.80;;;17.40;;
3561;SDS011;1795;52.074;4.754;2023-05-07T01:09:32;21.73;;;17.73;;
3561;SDS011;1795;52.074;4.754;2023-05-07T01:12:01;20.83;;;17.80;;
3561;SDS011;1795;52.074;4.754;2023-05-07T01:14:32;25.35;;;19.70;;
3561;SDS011;1795;52.074;4.754;2023-05-07T01:17:00;22.35;;;17.35;;
3561;SDS011;1795;52.074;4.754;2023-05-07T01:19:28;20.77;;;17.75;;
3561;SDS011;1795;52.074;4.754;2023-05-07T01:22:00;23.73;;;20.15;;
3561;SDS011;1795;52.074;4.754;2023-05-07T01:24:32;25.10;;;20.67;;
3561;SDS011;1795;52.074;4.754;2023-05-07T01:27:00;26.23;;;19.90;;
3561;SDS011;1795;52.074;4.754;2023-05-07T01:29:28;24.70;;;21.40;;
3561;SDS011;1795;52.074;4.754;2023-05-07T01:31:56;27.02;;;21.48;;
3561;SDS011;1795;52.074;4.754;2023-05-07T01:34:27;24.23;;;21.70;;
3561;SDS011;1795;52.074;4.754;2023-05-07T01:36:57;25.40;;;20.02;;
3561;SDS011;1795;52.074;4.754;2023-05-07T01:39:28;28.02;;;21.20;;
3561;SDS011;1795;52.074;4.754;2023-05-07T01:41:58;24.83;;;20.85;;
3561;SDS011;1795;52.074;4.754;2023-05-07T01:44:26;23.50;;;20.80;;
3561;SDS011;1795;52.074;4.754;2023-05-07T01:46:55;22.60;;;19.45;;
3561;SDS011;1795;52.074;4.754;2023-05-07T01:49:24;24.10;;;19.87;;
3561;SDS011;1795;52.074;4.754;2023-05-07T01:51:52;21.52;;;18.92;;
3561;SDS011;1795;52.074;4.754;2023-05-07T01:54:21;21.40;;;18.40;;
3561;SDS011;1795;52.074;4.754;2023-05-07T01:56:54;20.70;;;18.45;;
3561;SDS011;1795;52.074;4.754;2023-05-07T01:59:24;21.35;;;18.70;;
3561;SDS011;1795;52.074;4.754;2023-05-07T02:01:52;22.27;;;19.40;;
3561;SDS011;1795;52.074;4.754;2023-05-07T02:04:20;19.65;;;17.40;;
3561;SDS011;1795;52.074;4.754;2023-05-07T02:06:48;19.70;;;17.70;;
3561;SDS011;1795;52.074;4.754;2023-05-07T02:09:16;20.60;;;18.40;;
3561;SDS011;1795;52.074;4.754;2023-05-07T02:11:44;18.48;;;16.23;;
3561;SDS011;1795;52.074;4.754;2023-05-07T02:14:12;19.48;;;17.08;;
3561;SDS011;1795;52.074;4.754;2023-05-07T02:16:43;18.52;;;15.15;;
3561;SDS011;1795;52.074;4.754;2023-05-07T02:19:11;19.67;;;15.65;;
3561;SDS011;1795;52.074;4.754;2023-05-07T02:21:39;17.98;;;16.08;;
3561;SDS011;1795;52.074;4.754;2023-05-07T02:24:07;17.98;;;16.17;;
3561;SDS011;1795;52.074;4.754;2023-05-07T02:26:35;18.15;;;15.32;;
3561;SDS011;1795;52.074;4.754;2023-05-07T02:29:03;17.75;;;14.18;;
3561;SDS011;1795;52.074;4.754;2023-05-07T02:31:31;16.02;;;14.43;;
3561;SDS011;1795;52.074;4.754;2023-05-07T02:34:01;16.40;;;14.70;;
3561;SDS011;1795;52.074;4.754;2023-05-07T02:36:30;16.50;;;14.70;;
3561;SDS011;1795;52.074;4.754;2023-05-07T02:38:58;17.10;;;15.30;;
3561;SDS011;1795;52.074;4.754;2023-05-07T02:41:26;15.70;;;14.00;;
3561;SDS011;1795;52.074;4.754;2023-05-07T02:43:54;15.40;;;13.43;;
3561;SDS011;1795;52.074;4.754;2023-05-07T02:46:22;14.25;;;12.75;;
3561;SDS011;1795;52.074;4.754;2023-05-07T02:48:50;13.95;;;12.45;;
3561;SDS011;1795;52.074;4.754;2023-05-07T02:51:20;14.20;;;12.20;;
3561;SDS011;1795;52.074;4.754;2023-05-07T02:53:51;14.02;;;12.13;;
3561;SDS011;1795;52.074;4.754;2023-05-07T02:56:19;15.57;;;12.10;;
3561;SDS011;1795;52.074;4.754;2023-05-07T02:58:47;13.50;;;12.10;;
3561;SDS011;1795;52.074;4.754;2023-05-07T03:01:15;16.92;;;12.40;;
3561;SDS011;1795;52.074;4.754;2023-05-07T03:03:43;13.18;;;11.70;;
3561;SDS011;1795;52.074;4.754;2023-05-07T03:06:11;12.98;;;11.10;;
3561;SDS011;1795;52.074;4.754;2023-05-07T03:08:41;12.00;;;10.80;;
3561;SDS011;1795;52.074;4.754;2023-05-07T03:11:09;12.85;;;11.55;;
3561;SDS011;1795;52.074;4.754;2023-05-07T03:13:37;13.85;;;10.63;;
3561;SDS011;1795;52.074;4.754;2023-05-07T03:16:05;12.15;;;10.95;;
3561;SDS011;1795;52.074;4.754;2023-05-07T03:18:33;13.10;;;11.80;;
3561;SDS011;1795;52.074;4.754;2023-05-07T03:21:01;11.65;;;10.45;;
3561;SDS011;1795;52.074;4.754;2023-05-07T03:23:29;11.63;;;10.43;;
3561;SDS011;1795;52.074;4.754;2023-05-07T03:25:59;10.85;;;9.85;;
3561;SDS011;1795;52.074;4.754;2023-05-07T03:28:27;14.05;;;10.60;;
3561;SDS011;1795;52.074;4.754;2023-05-07T03:30:54;12.35;;;11.05;;
3561;SDS011;1795;52.074;4.754;2023-05-07T03:33:22;12.37;;;10.50;;
3561;SDS011;1795;52.074;4.754;2023-05-07T03:35:51;11.47;;;10.27;;
3561;SDS011;1795;52.074;4.754;2023-05-07T03:38:18;11.98;;;10.10;;
3561;SDS011;1795;52.074;4.754;2023-05-07T03:40:46;10.65;;;9.60;;
3561;SDS011;1795;52.074;4.754;2023-05-07T03:43:17;9.90;;;8.90;;
3561;SDS011;1795;52.074;4.754;2023-05-07T03:45:45;9.82;;;8.93;;
3561;SDS011;1795;52.074;4.754;2023-05-07T03:48:13;10.98;;;9.90;;
3561;SDS011;1795;52.074;4.754;2023-05-07T03:50:41;11.38;;;10.20;;
3561;SDS011;1795;52.074;4.754;2023-05-07T03:53:09;12.43;;;11.23;;
3561;SDS011;1795;52.074;4.754;2023-05-07T03:55:37;10.43;;;9.32;;
3561;SDS011;1795;52.074;4.754;2023-05-07T03:58:05;11.13;;;9.73;;
3561;SDS011;1795;52.074;4.754;2023-05-07T04:00:34;9.57;;;8.68;;
3561;SDS011;1795;52.074;4.754;2023-05-07T04:03:04;9.35;;;8.35;;
3561;SDS011;1795;52.074;4.754;2023-05-07T04:05:33;9.65;;;8.65;;
3561;SDS011;1795;52.074;4.754;2023-05-07T04:08:01;9.00;;;8.02;;
3561;SDS011;1795;52.074;4.754;2023-05-07T04:10:29;9.00;;;8.10;;
3561;SDS011;1795;52.074;4.754;2023-05-07T04:12:57;9.70;;;8.77;;
3561;SDS011;1795;52.074;4.754;2023-05-07T04:15:25;8.73;;;7.93;;
3561;SDS011;1795;52.074;4.754;2023-05-07T04:17:54;8.57;;;7.78;;
3561;SDS011;1795;52.074;4.754;2023-05-07T04:20:23;11.00;;;9.20;;
3561;SDS011;1795;52.074;4.754;2023-05-07T04:22:51;9.53;;;8.53;;
3561;SDS011;1795;52.074;4.754;2023-05-07T04:25:19;9.13;;;8.23;;
3561;SDS011;1795;52.074;4.754;2023-05-07T04:27:46;9.50;;;8.50;;
3561;SDS011;1795;52.074;4.754;2023-05-07T04:30:16;9.98;;;8.95;;
3561;SDS011;1795;52.074;4.754;2023-05-07T04:32:44;9.90;;;8.50;;
3561;SDS011;1795;52.074;4.754;2023-05-07T04:35:14;9.40;;;8.50;;
3561;SDS011;1795;52.074;4.754;2023-05-07T04:37:42;10.13;;;8.93;;
3561;SDS011;1795;52.074;4.754;2023-05-07T04:40:10;10.00;;;8.98;;
3561;SDS011;1795;52.074;4.754;2023-05-07T04:42:38;8.43;;;7.63;;
3561;SDS011;1795;52.074;4.754;2023-05-07T04:45:06;9.00;;;7.80;;
3561;SDS011;1795;52.074;4.754;2023-05-07T04:47:36;9.43;;;8.40;;
3561;SDS011;1795;52.074;4.754;2023-05-07T04:50:04;10.13;;;8.85;;
3561;SDS011;1795;52.074;4.754;2023-05-07T04:52:35;11.43;;;9.07;;
3561;SDS011;1795;52.074;4.754;2023-05-07T04:55:03;10.40;;;7.80;;
3561;SDS011;1795;52.074;4.754;2023-05-07T04:57:32;10.68;;;9.57;;
3561;SDS011;1795;52.074;4.754;2023-05-07T05:00:00;10.00;;;9.00;;
3561;SDS011;1795;52.074;4.754;2023-05-07T05:02:30;10.13;;;9.02;;
3561;SDS011;1795;52.074;4.754;2023-05-07T05:04:58;10.90;;;8.82;;
3561;SDS011;1795;52.074;4.754;2023-05-07T05:07:27;11.02;;;9.82;;
3561;SDS011;1795;52.074;4.754;2023-05-07T05:09:57;10.63;;;9.40;;
3561;SDS011;1795;52.074;4.754;2023-05-07T05:12:25;10.93;;;9.73;;
3561;SDS011;1795;52.074;4.754;2023-05-07T05:14:53;11.18;;;10.07;;
3561;SDS011;1795;52.074;4.754;2023-05-07T05:17:21;9.73;;;8.73;;
3561;SDS011;1795;52.074;4.754;2023-05-07T05:19:49;11.35;;;10.15;;
3561;SDS011;1795;52.074;4.754;2023-05-07T05:22:17;11.07;;;9.65;;
3561;SDS011;1795;52.074;4.754;2023-05-07T05:24:47;10.83;;;9.73;;
3561;SDS011;1795;52.074;4.754;2023-05-07T05:27:16;10.23;;;9.23;;
3561;SDS011;1795;52.074;4.754;2023-05-07T05:29:44;11.20;;;9.60;;
3561;SDS011;1795;52.074;4.754;2023-05-07T05:32:12;13.00;;;10.10;;
3561;SDS011;1795;52.074;4.754;2023-05-07T05:34:40;11.02;;;9.90;;
3561;SDS011;1795;52.074;4.754;2023-05-07T05:37:08;11.48;;;10.27;;
3561;SDS011;1795;52.074;4.754;2023-05-07T05:39:36;12.20;;;9.80;;
3561;SDS011;1795;52.074;4.754;2023-05-07T05:42:03;11.50;;;10.27;;
3561;SDS011;1795;52.074;4.754;2023-05-07T05:44:33;14.55;;;11.00;;
3561;SDS011;1795;52.074;4.754;2023-05-07T05:47:01;11.50;;;10.40;;
3561;SDS011;1795;52.074;4.754;2023-05-07T05:49:30;12.48;;;10.55;;
3561;SDS011;1795;52.074;4.754;2023-05-07T05:51:57;10.73;;;9.63;;
3561;SDS011;1795;52.074;4.754;2023-05-07T05:54:25;11.20;;;9.33;;
3561;SDS011;1795;52.074;4.754;2023-05-07T05:56:53;12.25;;;9.75;;
3561;SDS011;1795;52.074;4.754;2023-05-07T05:59:21;10.80;;;9.70;;
3561;SDS011;1795;52.074;4.754;2023-05-07T06:01:51;10.90;;;9.10;;
3561;SDS011;1795;52.074;4.754;2023-05-07T06:04:19;12.23;;;9.70;;
3561;SDS011;1795;52.074;4.754;2023-05-07T06:06:47;10.80;;;9.68;;
3561;SDS011;1795;52.074;4.754;2023-05-07T06:09:15;13.98;;;10.30;;
3561;SDS011;1795;52.074;4.754;2023-05-07T06:11:43;10.68;;;9.65;;
3561;SDS011;1795;52.074;4.754;2023-05-07T06:14:11;12.95;;;10.35;;
3561;SDS011;1795;52.074;4.754;2023-05-07T06:16:39;14.13;;;11.60;;
3561;SDS011;1795;52.074;4.754;2023-05-07T06:19:09;12.63;;;11.07;;
3561;SDS011;1795;52.074;4.754;2023-05-07T06:21:38;14.52;;;12.45;;
3561;SDS011;1795;52.074;4.754;2023-05-07T06:24:06;15.13;;;12.82;;
3561;SDS011;1795;52.074;4.754;2023-05-07T06:26:34;15.32;;;12.95;;
3561;SDS011;1795;52.074;4.754;2023-05-07T06:29:02;15.48;;;13.40;;
3561;SDS011;1795;52.074;4.754;2023-05-07T06:31:30;17.55;;;14.40;;
3561;SDS011;1795;52.074;4.754;2023-05-07T06:33:59;18.15;;;14.93;;
3561;SDS011;1795;52.074;4.754;2023-05-07T06:36:29;15.52;;;13.73;;
3561;SDS011;1795;52.074;4.754;2023-05-07T06:38:57;16.40;;;13.70;;
3561;SDS011;1795;52.074;4.754;2023-05-07T06:41:25;18.80;;;15.52;;
3561;SDS011;1795;52.074;4.754;2023-05-07T06:43:53;21.75;;;16.85;;
3561;SDS011;1795;52.074;4.754;2023-05-07T06:46:21;19.77;;;16.85;;
3561;SDS011;1795;52.074;4.754;2023-05-07T06:48:49;22.58;;;17.63;;
3561;SDS011;1795;52.074;4.754;2023-05-07T06:51:18;19.25;;;16.50;;
3561;SDS011;1795;52.074;4.754;2023-05-07T06:53:47;22.20;;;17.67;;
3561;SDS011;1795;52.074;4.754;2023-05-07T06:56:15;22.38;;;17.33;;
3561;SDS011;1795;52.074;4.754;2023-05-07T06:58:43;22.38;;;17.70;;
3561;SDS011;1795;52.074;4.754;2023-05-07T07:01:11;20.48;;;18.17;;
3561;SDS011;1795;52.074;4.754;2023-05-07T07:03:39;23.80;;;19.15;;
3561;SDS011;1795;52.074;4.754;2023-05-07T07:06:07;22.30;;;19.90;;
3561;SDS011;1795;52.074;4.754;2023-05-07T07:08:35;22.50;;;19.30;;
3561;SDS011;1795;52.074;4.754;2023-05-07T07:11:06;20.95;;;18.10;;
3561;SDS011;1795;52.074;4.754;2023-05-07T07:13:34;25.83;;;20.98;;
3561;SDS011;1795;52.074;4.754;2023-05-07T07:16:02;27.38;;;20.85;;
3561;SDS011;1795;52.074;4.754;2023-05-07T07:18:30;23.60;;;20.63;;
3561;SDS011;1795;52.074;4.754;2023-05-07T07:20:58;22.83;;;19.98;;
3561;SDS011;1795;52.074;4.754;2023-05-07T07:23:26;22.05;;;18.73;;
3561;SDS011;1795;52.074;4.754;2023-05-07T07:25:54;26.52;;;20.70;;
3561;SDS011;1795;52.074;4.754;2023-05-07T07:28:23;24.13;;;21.17;;
3561;SDS011;1795;52.074;4.754;2023-05-07T07:30:51;23.80;;;20.90;;
3561;SDS011;1795;52.074;4.754;2023-05-07T07:33:19;23.23;;;20.73;;
3561;SDS011;1795;52.074;4.754;2023-05-07T07:35:47;24.42;;;20.88;;
3561;SDS011;1795;52.074;4.754;2023-05-07T07:38:15;25.58;;;21.20;;
3561;SDS011;1795;52.074;4.754;2023-05-07T07:40:43;25.95;;;21.13;;
3561;SDS011;1795;52.074;4.754;2023-05-07T07:43:12;22.85;;;20.45;;
3561;SDS011;1795;52.074;4.754;2023-05-07T07:45:41;25.90;;;19.95;;
3561;SDS011;1795;52.074;4.754;2023-05-07T07:48:10;22.50;;;20.10;;
3561;SDS011;1795;52.074;4.754;2023-05-07T07:50:38;25.42;;;21.10;;
3561;SDS011;1795;52.074;4.754;2023-05-07T07:53:11;24.58;;;21.23;;
3561;SDS011;1795;52.074;4.754;2023-05-07T07:55:39;26.95;;;22.17;;
3561;SDS011;1795;52.074;4.754;2023-05-07T07:58:07;26.75;;;21.50;;
3561;SDS011;1795;52.074;4.754;2023-05-07T08:00:35;26.17;;;21.60;;
3561;SDS011;1795;52.074;4.754;2023-05-07T08:03:04;21.92;;;19.17;;
3561;SDS011;1795;52.074;4.754;2023-05-07T08:05:33;22.47;;;20.07;;
3561;SDS011;1795;52.074;4.754;2023-05-07T08:08:02;22.77;;;19.92;;
3561;SDS011;1795;52.074;4.754;2023-05-07T08:10:30;24.60;;;19.15;;
3561;SDS011;1795;52.074;4.754;2023-05-07T08:13:00;25.38;;;18.67;;
3561;SDS011;1795;52.074;4.754;2023-05-07T08:15:30;22.42;;;19.13;;
3561;SDS011;1795;52.074;4.754;2023-05-07T08:17:58;23.13;;;18.95;;
3561;SDS011;1795;52.074;4.754;2023-05-07T08:20:28;25.07;;;20.47;;
3561;SDS011;1795;52.074;4.754;2023-05-07T08:22:56;22.88;;;19.85;;
3561;SDS011;1795;52.074;4.754;2023-05-07T08:25:25;25.35;;;19.60;;
3561;SDS011;1795;52.074;4.754;2023-05-07T08:27:52;24.40;;;20.27;;
3561;SDS011;1795;52.074;4.754;2023-05-07T08:30:20;23.88;;;19.50;;
3561;SDS011;1795;52.074;4.754;2023-05-07T08:32:48;25.10;;;19.15;;
3561;SDS011;1795;52.074;4.754;2023-05-07T08:35:16;24.70;;;19.52;;
3561;SDS011;1795;52.074;4.754;2023-05-07T08:37:46;21.80;;;17.90;;
3561;SDS011;1795;52.074;4.754;2023-05-07T08:40:13;24.03;;;17.77;;
3561;SDS011;1795;52.074;4.754;2023-05-07T08:42:42;25.95;;;17.80;;
3561;SDS011;1795;52.074;4.754;2023-05-07T08:45:11;21.40;;;16.90;;
3561;SDS011;1795;52.074;4.754;2023-05-07T08:47:41;23.85;;;19.00;;
3561;SDS011;1795;52.074;4.754;2023-05-07T08:50:12;21.30;;;18.57;;
3561;SDS011;1795;52.074;4.754;2023-05-07T08:52:40;25.53;;;18.47;;
3561;SDS011;1795;52.074;4.754;2023-05-07T08:55:09;21.00;;;18.80;;
3561;SDS011;1795;52.074;4.754;2023-05-07T08:57:38;23.85;;;17.83;;
3561;SDS011;1795;52.074;4.754;2023-05-07T09:00:06;20.80;;;17.30;;
3561;SDS011;1795;52.074;4.754;2023-05-07T09:02:36;18.63;;;15.27;;
3561;SDS011;1795;52.074;4.754;2023-05-07T09:05:04;18.63;;;16.17;;
3561;SDS011;1795;52.074;4.754;2023-05-07T09:07:33;19.65;;;14.60;;
3561;SDS011;1795;52.074;4.754;2023-05-07T09:10:01;20.02;;;15.95;;
3561;SDS011;1795;52.074;4.754;2023-05-07T09:12:31;18.87;;;14.87;;
3561;SDS011;1795;52.074;4.754;2023-05-07T09:15:01;16.23;;;13.05;;
3561;SDS011;1795;52.074;4.754;2023-05-07T09:17:29;14.32;;;12.20;;
3561;SDS011;1795;52.074;4.754;2023-05-07T09:20:01;15.57;;;11.57;;
3561;SDS011;1795;52.074;4.754;2023-05-07T09:22:31;12.70;;;9.20;;
3561;SDS011;1795;52.074;4.754;2023-05-07T09:24:59;13.15;;;9.70;;
3561;SDS011;1795;52.074;4.754;2023-05-07T09:27:27;13.75;;;11.40;;
3561;SDS011;1795;52.074;4.754;2023-05-07T09:29:57;14.20;;;11.60;;
3561;SDS011;1795;52.074;4.754;2023-05-07T09:32:25;15.68;;;11.95;;
3561;SDS011;1795;52.074;4.754;2023-05-07T09:34:53;17.17;;;12.80;;
3561;SDS011;1795;52.074;4.754;2023-05-07T09:37:21;15.15;;;12.65;;
3561;SDS011;1795;52.074;4.754;2023-05-07T09:39:49;15.10;;;13.27;;
3561;SDS011;1795;52.074;4.754;2023-05-07T09:42:22;16.75;;;13.85;;
3561;SDS011;1795;52.074;4.754;2023-05-07T09:44:50;16.27;;;13.15;;
3561;SDS011;1795;52.074;4.754;2023-05-07T09:47:20;16.35;;;14.48;;
3561;SDS011;1795;52.074;4.754;2023-05-07T09:49:53;16.80;;;13.73;;
3561;SDS011;1795;52.074;4.754;2023-05-07T09:52:24;16.80;;;12.38;;
3561;SDS011;1795;52.074;4.754;2023-05-07T09:54:54;14.25;;;10.82;;
3561;SDS011;1795;52.074;4.754;2023-05-07T09:57:25;13.33;;;11.00;;
3561;SDS011;1795;52.074;4.754;2023-05-07T09:59:54;13.18;;;9.32;;
3561;SDS011;1795;52.074;4.754;2023-05-07T10:02:26;16.77;;;11.77;;
3561;SDS011;1795;52.074;4.754;2023-05-07T10:04:57;16.08;;;12.10;;
3561;SDS011;1795;52.074;4.754;2023-05-07T10:07:26;16.00;;;11.67;;
3561;SDS011;1795;52.074;4.754;2023-05-07T10:09:55;15.77;;;12.95;;
3561;SDS011;1795;52.074;4.754;2023-05-07T10:12:24;17.15;;;12.15;;
3561;SDS011;1795;52.074;4.754;2023-05-07T10:14:53;15.20;;;12.23;;
3561;SDS011;1795;52.074;4.754;2023-05-07T10:17:23;15.73;;;11.80;;
3561;SDS011;1795;52.074;4.754;2023-05-07T10:19:53;13.00;;;11.32;;
3561;SDS011;1795;52.074;4.754;2023-05-07T10:22:22;18.40;;;11.45;;
3561;SDS011;1795;52.074;4.754;2023-05-07T10:24:51;14.40;;;10.88;;
3561;SDS011;1795;52.074;4.754;2023-05-07T10:27:21;14.20;;;10.43;;
3561;SDS011;1795;52.074;4.754;2023-05-07T10:29:52;13.73;;;9.73;;
3561;SDS011;1795;52.074;4.754;2023-05-07T10:32:33;11.52;;;10.07;;
3561;SDS011;1795;52.074;4.754;2023-05-07T10:35:09;21.50;;;10.38;;
3561;SDS011;1795;52.074;4.754;2023-05-07T10:37:41;15.27;;;11.10;;
3561;SDS011;1795;52.074;4.754;2023-05-07T10:40:10;13.20;;;11.02;;
3561;SDS011;1795;52.074;4.754;2023-05-07T10:42:39;17.27;;;11.38;;
3561;SDS011;1795;52.074;4.754;2023-05-07T10:45:22;11.57;;;8.90;;
3561;SDS011;1795;52.074;4.754;2023-05-07T10:48:06;13.68;;;8.70;;
3561;SDS011;1795;52.074;4.754;2023-05-07T10:51:17;10.85;;;7.63;;
3561;SDS011;1795;52.074;4.754;2023-05-07T10:53:47;10.88;;;6.90;;
3561;SDS011;1795;52.074;4.754;2023-05-07T11:01:58;14.40;;;6.45;;
3561;SDS011;1795;52.074;4.754;2023-05-07T11:04:29;10.48;;;7.00;;
3561;SDS011;1795;52.074;4.754;2023-05-07T11:07:19;10.73;;;6.50;;
3561;SDS011;1795;52.074;4.754;2023-05-07T11:09:56;11.07;;;6.70;;
3561;SDS011;1795;52.074;4.754;2023-05-07T11:12:46;9.77;;;5.75;;
3561;SDS011;1795;52.074;4.754;2023-05-07T11:15:15;15.13;;;6.68;;
3561;SDS011;1795;52.074;4.754;2023-05-07T11:18:00;11.55;;;6.57;;
3561;SDS011;1795;52.074;4.754;2023-05-07T11:20:44;12.43;;;7.72;;
3561;SDS011;1795;52.074;4.754;2023-05-07T11:26:45;11.55;;;7.90;;
3561;SDS011;1795;52.074;4.754;2023-05-07T11:29:16;13.75;;;7.95;;
3561;SDS011;1795;52.074;4.754;2023-05-07T11:31:48;11.57;;;7.25;;
3561;SDS011;1795;52.074;4.754;2023-05-07T11:34:20;10.68;;;8.18;;
3561;SDS011;1795;52.074;4.754;2023-05-07T11:36:49;12.35;;;8.35;;
3561;SDS011;1795;52.074;4.754;2023-05-07T11:39:24;11.15;;;8.02;;
3561;SDS011;1795;52.074;4.754;2023-05-07T11:41:58;12.15;;;8.50;;
3561;SDS011;1795;52.074;4.754;2023-05-07T11:44:39;11.47;;;8.80;;
3561;SDS011;1795;52.074;4.754;2023-05-07T11:47:08;12.75;;;8.60;;
3561;SDS011;1795;52.074;4.754;2023-05-07T11:49:37;13.65;;;8.90;;
3561;SDS011;1795;52.074;4.754;2023-05-07T11:52:06;11.48;;;8.40;;
3561;SDS011;1795;52.074;4.754;2023-05-07T11:54:35;9.60;;;7.03;;
3561;SDS011;1795;52.074;4.754;2023-05-07T11:57:05;10.57;;;8.37;;
3561;SDS011;1795;52.074;4.754;2023-05-07T11:59:38;8.90;;;7.75;;
3561;SDS011;1795;52.074;4.754;2023-05-07T12:02:06;17.92;;;8.00;;
3561;SDS011;1795;52.074;4.754;2023-05-07T12:04:34;22.25;;;11.32;;
3561;SDS011;1795;52.074;4.754;2023-05-07T12:07:02;10.77;;;7.70;;
3561;SDS011;1795;52.074;4.754;2023-05-07T12:09:32;10.75;;;7.50;;
3561;SDS011;1795;52.074;4.754;2023-05-07T12:12:02;15.23;;;8.80;;
3561;SDS011;1795;52.074;4.754;2023-05-07T12:14:32;11.43;;;8.10;;
3561;SDS011;1795;52.074;4.754;2023-05-07T12:17:04;13.75;;;9.48;;
3561;SDS011;1795;52.074;4.754;2023-05-07T12:19:33;12.02;;;8.57;;
3561;SDS011;1795;52.074;4.754;2023-05-07T12:22:02;14.40;;;9.50;;
3561;SDS011;1795;52.074;4.754;2023-05-07T12:24:41;10.23;;;8.10;;
3561;SDS011;1795;52.074;4.754;2023-05-07T12:27:12;12.90;;;11.50;;
3561;SDS011;1795;52.074;4.754;2023-05-07T12:29:44;11.65;;;7.28;;
3561;SDS011;1795;52.074;4.754;2023-05-07T12:32:13;12.10;;;7.95;;
3561;SDS011;1795;52.074;4.754;2023-05-07T12:34:42;14.13;;;9.25;;
3561;SDS011;1795;52.074;4.754;2023-05-07T12:37:11;12.27;;;9.95;;
3561;SDS011;1795;52.074;4.754;2023-05-07T12:39:43;13.85;;;10.75;;
3561;SDS011;1795;52.074;4.754;2023-05-07T12:42:14;13.80;;;11.77;;
3561;SDS011;1795;52.074;4.754;2023-05-07T12:44:45;17.77;;;12.93;;
3561;SDS011;1795;52.074;4.754;2023-05-07T12:47:14;17.08;;;13.85;;
3561;SDS011;1795;52.074;4.754;2023-05-07T12:49:42;36.03;;;14.50;;
3561;SDS011;1795;52.074;4.754;2023-05-07T12:52:12;30.40;;;20.77;;
3561;SDS011;1795;52.074;4.754;2023-05-07T12:54:40;24.08;;;20.60;;
3561;SDS011;1795;52.074;4.754;2023-05-07T12:57:08;22.37;;;19.97;;
3561;SDS011;1795;52.074;4.754;2023-05-07T12:59:38;27.15;;;20.90;;
3561;SDS011;1795;52.074;4.754;2023-05-07T13:02:08;21.02;;;17.73;;
3561;SDS011;1795;52.074;4.754;2023-05-07T13:04:36;21.08;;;18.70;;
3561;SDS011;1795;52.074;4.754;2023-05-07T13:07:04;19.70;;;17.60;;
3561;SDS011;1795;52.074;4.754;2023-05-07T13:09:32;18.75;;;16.45;;
3561;SDS011;1795;52.074;4.754;2023-05-07T13:12:00;18.90;;;16.87;;
3561;SDS011;1795;52.074;4.754;2023-05-07T13:14:28;18.70;;;16.42;;
3561;SDS011;1795;52.074;4.754;2023-05-07T13:16:56;19.75;;;17.60;;
3561;SDS011;1795;52.074;4.754;2023-05-07T13:19:25;19.52;;;14.95;;
3561;SDS011;1795;52.074;4.754;2023-05-07T13:21:56;19.33;;;17.05;;
3561;SDS011;1795;52.074;4.754;2023-05-07T13:24:24;16.30;;;14.55;;
3561;SDS011;1795;52.074;4.754;2023-05-07T13:26:52;17.25;;;15.45;;
3561;SDS011;1795;52.074;4.754;2023-05-07T13:29:21;17.65;;;15.85;;
3561;SDS011;1795;52.074;4.754;2023-05-07T13:31:54;15.95;;;13.00;;
3561;SDS011;1795;52.074;4.754;2023-05-07T13:34:24;16.58;;;12.40;;
3561;SDS011;1795;52.074;4.754;2023-05-07T13:36:53;15.60;;;12.90;;
3561;SDS011;1795;52.074;4.754;2023-05-07T13:39:21;9.63;;;8.63;;
3561;SDS011;1795;52.074;4.754;2023-05-07T13:41:49;8.40;;;6.70;;
3561;SDS011;1795;52.074;4.754;2023-05-07T13:44:17;4.95;;;4.45;;
3561;SDS011;1795;52.074;4.754;2023-05-07T13:46:45;6.05;;;3.03;;
3561;SDS011;1795;52.074;4.754;2023-05-07T13:49:13;8.52;;;3.10;;
3561;SDS011;1795;52.074;4.754;2023-05-07T13:51:42;10.95;;;3.80;;
3561;SDS011;1795;52.074;4.754;2023-05-07T13:54:10;10.60;;;3.60;;
3561;SDS011;1795;52.074;4.754;2023-05-07T13:56:38;13.75;;;5.22;;
3561;SDS011;1795;52.074;4.754;2023-05-07T13:59:06;14.95;;;5.50;;
3561;SDS011;1795;52.074;4.754;2023-05-07T14:01:34;11.47;;;4.40;;
3561;SDS011;1795;52.074;4.754;2023-05-07T14:04:02;14.43;;;4.35;;
3561;SDS011;1795;52.074;4.754;2023-05-07T14:06:30;8.40;;;4.45;;
3561;SDS011;1795;52.074;4.754;2023-05-07T14:09:00;7.65;;;3.60;;
3561;SDS011;1795;52.074;4.754;2023-05-07T14:11:27;13.95;;;4.25;;
3561;SDS011;1795;52.074;4.754;2023-05-07T14:13:56;11.20;;;4.33;;
3561;SDS011;1795;52.074;4.754;2023-05-07T14:16:24;7.78;;;3.45;;
3561;SDS011;1795;52.074;4.754;2023-05-07T14:18:52;8.60;;;4.47;;
3561;SDS011;1795;52.074;4.754;2023-05-07T14:21:23;8.90;;;4.82;;
3561;SDS011;1795;52.074;4.754;2023-05-07T14:23:51;8.60;;;5.60;;
3561;SDS011;1795;52.074;4.754;2023-05-07T14:26:20;9.23;;;5.10;;
3561;SDS011;1795;52.074;4.754;2023-05-07T14:28:49;6.70;;;4.40;;
3561;SDS011;1795;52.074;4.754;2023-05-07T14:31:17;6.95;;;4.43;;
3561;SDS011;1795;52.074;4.754;2023-05-07T14:33:45;6.82;;;3.90;;
3561;SDS011;1795;52.074;4.754;2023-05-07T14:36:13;7.03;;;4.03;;
3561;SDS011;1795;52.074;4.754;2023-05-07T14:38:41;8.90;;;4.40;;
3561;SDS011;1795;52.074;4.754;2023-05-07T14:41:09;7.70;;;4.57;;
3561;SDS011;1795;52.074;4.754;2023-05-07T14:43:39;9.63;;;5.28;;
3561;SDS011;1795;52.074;4.754;2023-05-07T14:46:06;9.05;;;6.28;;
3561;SDS011;1795;52.074;4.754;2023-05-07T14:48:34;7.90;;;5.53;;
3561;SDS011;1795;52.074;4.754;2023-05-07T14:51:02;6.93;;;5.40;;
3561;SDS011;1795;52.074;4.754;2023-05-07T14:53:30;5.45;;;4.60;;
3561;SDS011;1795;52.074;4.754;2023-05-07T14:55:59;4.75;;;4.35;;
3561;SDS011;1795;52.074;4.754;2023-05-07T14:58:26;6.20;;;4.82;;
3561;SDS011;1795;52.074;4.754;2023-05-07T15:00:56;5.10;;;4.60;;
3561;SDS011;1795;52.074;4.754;2023-05-07T15:03:24;5.20;;;4.70;;
3561;SDS011;1795;52.074;4.754;2023-05-07T15:05:52;5.50;;;4.40;;
3561;SDS011;1795;52.074;4.754;2023-05-07T15:08:20;7.47;;;5.35;;
3561;SDS011;1795;52.074;4.754;2023-05-07T15:10:48;7.75;;;5.50;;
3561;SDS011;1795;52.074;4.754;2023-05-07T15:13:16;6.83;;;5.83;;
3561;SDS011;1795;52.074;4.754;2023-05-07T15:15:44;10.35;;;6.30;;